Port Angeles, Washington
Current Conditions -  °F | °C
As of 9:00 PM on Thursday 23 Oct 2014 (Local Time) from CYWH Reporting Station
Broken Clouds Broken Clouds  
Wind Chill: 52°   Ceiling: 6000
Heat Index: 52°   Visibility: 15mi
Dew Point: 46°   Wind: 3mph
Humidity: 82%   Direction: 140°SE
Pressure: 29.94"   Gusts: NA
Location:  48.12°N, 123.43°W
Report Text: CYWH 240400Z 14003KT 15SM FEW025 BKN060 BKN080 11/08 A2994 RMK CU2SC3AC1 LAST OBS/NEXT 241300 UTC SLP138
Loading
Personal Weather Stations






























Interactive Weather Map New forecast layout! Learn more

10-Day Weather Forecast

Advertisements
Track Severe Weather on mobile